sensor_id;sensor_type;location;lat;lon;timestamp;pressure;altitude;pressure_sealevel;temperature;humidity
29385;BME280;16367;48.736;9.218;2023-05-08T00:02:00;55054.13;;;14.34;100.00
29385;BME280;16367;48.736;9.218;2023-05-08T00:04:03;49199.13;;;14.31;100.00
29385;BME280;16367;48.736;9.218;2023-05-08T00:06:07;46925.00;;;14.34;100.00
29385;BME280;16367;48.736;9.218;2023-05-08T00:08:11;46627.03;;;14.26;100.00
29385;BME280;16367;48.736;9.218;2023-05-08T00:10:14;43040.22;;;14.26;100.00
29385;BME280;16367;48.736;9.218;2023-05-08T00:12:17;39871.66;;;14.26;100.00
29385;BME280;16367;48.736;9.218;2023-05-08T00:14:19;37562.78;;;14.32;100.00
29385;BME280;16367;48.736;9.218;2023-05-08T00:16:22;34685.22;;;14.27;100.00
29385;BME280;16367;48.736;9.218;2023-05-08T00:18:25;36407.06;;;14.26;100.00
29385;BME280;16367;48.736;9.218;2023-05-08T00:20:28;37066.50;;;14.24;100.00
29385;BME280;16367;48.736;9.218;2023-05-08T00:22:31;38194.63;;;14.27;100.00
29385;BME280;16367;48.736;9.218;2023-05-08T00:24:35;37776.09;;;14.28;100.00
29385;BME280;16367;48.736;9.218;2023-05-08T00:26:37;35535.31;;;14.30;100.00
29385;BME280;16367;48.736;9.218;2023-05-08T00:28:42;31491.38;;;14.30;100.00
29385;BME280;16367;48.736;9.218;2023-05-08T00:30:45;23106.16;;;14.42;100.00
29385;BME280;16367;48.736;9.218;2023-05-08T00:32:47;17682.81;;;14.45;100.00
29385;BME280;16367;48.736;9.218;2023-05-08T00:34:50;17714.31;;;14.40;100.00
29385;BME280;16367;48.736;9.218;2023-05-08T00:36:55;17629.06;;;14.45;100.00
29385;BME280;16367;48.736;9.218;2023-05-08T00:38:57;16684.97;;;14.38;100.00
29385;BME280;16367;48.736;9.218;2023-05-08T00:41:02;15883.09;;;14.34;100.00
29385;BME280;16367;48.736;9.218;2023-05-08T00:43:05;17318.47;;;14.35;100.00
29385;BME280;16367;48.736;9.218;2023-05-08T00:45:08;16793.44;;;14.41;100.00
29385;BME280;16367;48.736;9.218;2023-05-08T00:47:11;13455.78;;;14.41;100.00
29385;BME280;16367;48.736;9.218;2023-05-08T00:49:14;9883.53;;;14.30;100.00
29385;BME280;16367;48.736;9.218;2023-05-08T00:51:17;11039.28;;;14.25;100.00
29385;BME280;16367;48.736;9.218;2023-05-08T00:53:21;11052.03;;;14.25;100.00
29385;BME280;16367;48.736;9.218;2023-05-08T00:55:24;7648.09;;;14.35;100.00
29385;BME280;16367;48.736;9.218;2023-05-08T00:57:29;3577.47;;;14.21;100.00
29385;BME280;16367;48.736;9.218;2023-05-08T00:59:36;7024.09;;;14.28;100.00
29385;BME280;16367;48.736;9.218;2023-05-08T01:01:42;4887.38;;;14.35;100.00
29385;BME280;16367;48.736;9.218;2023-05-08T01:03:45;5237.72;;;14.23;100.00
29385;BME280;16367;48.736;9.218;2023-05-08T01:05:48;5780.50;;;14.37;100.00
29385;BME280;16367;48.736;9.218;2023-05-08T01:07:51;5054.22;;;14.25;100.00
29385;BME280;16367;48.736;9.218;2023-05-08T01:09:54;8348.25;;;14.26;100.00
29385;BME280;16367;48.736;9.218;2023-05-08T01:12:12;8515.72;;;14.46;100.00
29385;BME280;16367;48.736;9.218;2023-05-08T01:14:22;2435.28;;;14.42;100.00
29385;BME280;16367;48.736;9.218;2023-05-08T01:16:37;457.53;;;14.42;100.00
29385;BME280;16367;48.736;9.218;2023-05-08T01:18:44;-2603.81;;;14.45;100.00
29385;BME280;16367;48.736;9.218;2023-05-08T01:20:55;380.38;;;14.32;100.00
29385;BME280;16367;48.736;9.218;2023-05-08T01:23:27;6100.25;;;14.26;100.00
29385;BME280;16367;48.736;9.218;2023-05-08T01:25:51;14287.97;;;14.28;100.00
29385;BME280;16367;48.736;9.218;2023-05-08T01:28:12;22216.47;;;14.16;100.00
29385;BME280;16367;48.736;9.218;2023-05-08T01:30:59;28614.22;;;14.35;100.00
29385;BME280;16367;48.736;9.218;2023-05-08T01:33:09;24279.66;;;14.41;100.00
29385;BME280;16367;48.736;9.218;2023-05-08T01:35:20;19126.91;;;14.39;100.00
29385;BME280;16367;48.736;9.218;2023-05-08T01:37:29;16884.69;;;14.23;100.00
29385;BME280;16367;48.736;9.218;2023-05-08T01:39:43;22559.47;;;14.16;100.00
29385;BME280;16367;48.736;9.218;2023-05-08T01:41:52;29335.94;;;14.12;100.00
29385;BME280;16367;48.736;9.218;2023-05-08T01:44:08;36158.66;;;14.04;100.00
29385;BME280;16367;48.736;9.218;2023-05-08T01:46:17;40671.03;;;14.03;100.00
29385;BME280;16367;48.736;9.218;2023-05-08T01:48:25;45329.34;;;14.02;100.00
29385;BME280;16367;48.736;9.218;2023-05-08T01:50:32;50086.38;;;13.89;100.00
29385;BME280;16367;48.736;9.218;2023-05-08T01:52:41;54911.66;;;13.93;100.00
29385;BME280;16367;48.736;9.218;2023-05-08T01:54:49;57336.31;;;14.03;100.00
29385;BME280;16367;48.736;9.218;2023-05-08T01:56:55;58488.34;;;13.97;100.00
29385;BME280;16367;48.736;9.218;2023-05-08T01:59:00;57913.03;;;14.03;100.00
29385;BME280;16367;48.736;9.218;2023-05-08T02:01:05;56114.94;;;14.14;100.00
29385;BME280;16367;48.736;9.218;2023-05-08T02:03:10;53674.16;;;14.05;100.00
29385;BME280;16367;48.736;9.218;2023-05-08T02:05:17;50817.38;;;14.11;100.00
29385;BME280;16367;48.736;9.218;2023-05-08T02:07:21;46819.78;;;14.16;100.00
29385;BME280;16367;48.736;9.218;2023-05-08T02:09:25;40122.56;;;14.13;100.00
29385;BME280;16367;48.736;9.218;2023-05-08T02:11:30;35250.00;;;14.05;100.00
29385;BME280;16367;48.736;9.218;2023-05-08T02:13:35;32417.34;;;14.06;100.00
29385;BME280;16367;48.736;9.218;2023-05-08T02:15:39;28540.28;;;14.21;100.00
29385;BME280;16367;48.736;9.218;2023-05-08T02:17:45;21882.25;;;14.13;100.00
29385;BME280;16367;48.736;9.218;2023-05-08T02:19:51;13601.94;;;14.06;100.00
29385;BME280;16367;48.736;9.218;2023-05-08T02:21:58;10720.53;;;14.05;100.00
29385;BME280;16367;48.736;9.218;2023-05-08T02:24:03;10886.63;;;14.06;100.00
29385;BME280;16367;48.736;9.218;2023-05-08T02:26:07;13179.97;;;13.96;100.00
29385;BME280;16367;48.736;9.218;2023-05-08T02:28:11;14540.84;;;14.01;100.00
29385;BME280;16367;48.736;9.218;2023-05-08T02:30:15;12902.09;;;14.16;100.00
29385;BME280;16367;48.736;9.218;2023-05-08T02:32:19;8013.41;;;14.23;100.00
29385;BME280;16367;48.736;9.218;2023-05-08T02:34:24;2984.13;;;14.26;100.00
29385;BME280;16367;48.736;9.218;2023-05-08T02:36:28;-2792.78;;;14.18;100.00
29385;BME280;16367;48.736;9.218;2023-05-08T02:38:34;-5336.84;;;14.22;100.00
29385;BME280;16367;48.736;9.218;2023-05-08T02:40:43;-8203.88;;;14.10;100.00
29385;BME280;16367;48.736;9.218;2023-05-08T02:42:47;-9027.69;;;14.18;100.00
29385;BME280;16367;48.736;9.218;2023-05-08T02:44:51;-11512.06;;;14.21;100.00
29385;BME280;16367;48.736;9.218;2023-05-08T02:46:57;-13014.25;;;14.16;100.00
29385;BME280;16367;48.736;9.218;2023-05-08T02:49:03;-11678.47;;;14.12;100.00
29385;BME280;16367;48.736;9.218;2023-05-08T02:51:16;-10266.31;;;14.08;100.00
29385;BME280;16367;48.736;9.218;2023-05-08T02:53:25;-9310.88;;;14.02;100.00
29385;BME280;16367;48.736;9.218;2023-05-08T02:55:39;-9326.09;;;14.02;100.00
29385;BME280;16367;48.736;9.218;2023-05-08T02:57:49;-8564.19;;;14.04;100.00
29385;BME280;16367;48.736;9.218;2023-05-08T02:59:59;-9740.78;;;14.10;100.00
29385;BME280;16367;48.736;9.218;2023-05-08T03:02:07;-13357.31;;;14.19;100.00
29385;BME280;16367;48.736;9.218;2023-05-08T03:04:18;-14580.81;;;14.07;100.00
29385;BME280;16367;48.736;9.218;2023-05-08T03:06:25;-13725.19;;;14.02;100.00
29385;BME280;16367;48.736;9.218;2023-05-08T03:08:31;-11733.28;;;14.03;100.00
29385;BME280;16367;48.736;9.218;2023-05-08T03:10:38;-11950.19;;;14.12;100.00
29385;BME280;16367;48.736;9.218;2023-05-08T03:12:44;-10638.59;;;14.23;100.00
29385;BME280;16367;48.736;9.218;2023-05-08T03:14:52;-8315.88;;;14.13;100.00
29385;BME280;16367;48.736;9.218;2023-05-08T03:16:58;-3108.41;;;14.13;100.00
29385;BME280;16367;48.736;9.218;2023-05-08T03:19:05;2204.56;;;14.04;100.00
29385;BME280;16367;48.736;9.218;2023-05-08T03:21:10;3907.13;;;14.07;100.00
29385;BME280;16367;48.736;9.218;2023-05-08T03:23:16;1938.59;;;14.20;100.00
29385;BME280;16367;48.736;9.218;2023-05-08T03:25:20;1230.34;;;14.20;100.00
29385;BME280;16367;48.736;9.218;2023-05-08T03:27:25;152.63;;;14.17;100.00
29385;BME280;16367;48.736;9.218;2023-05-08T03:29:31;-932.31;;;14.13;100.00
29385;BME280;16367;48.736;9.218;2023-05-08T03:31:35;653.88;;;14.10;100.00
29385;BME280;16367;48.736;9.218;2023-05-08T03:33:40;24.16;;;14.00;100.00
29385;BME280;16367;48.736;9.218;2023-05-08T03:35:45;3305.41;;;14.05;100.00
29385;BME280;16367;48.736;9.218;2023-05-08T03:37:48;2809.75;;;14.16;100.00
29385;BME280;16367;48.736;9.218;2023-05-08T03:39:51;3444.38;;;14.16;100.00
29385;BME280;16367;48.736;9.218;2023-05-08T03:41:55;2411.47;;;14.09;100.00
29385;BME280;16367;48.736;9.218;2023-05-08T03:44:01;2657.75;;;14.01;100.00
29385;BME280;16367;48.736;9.218;2023-05-08T03:46:04;4784.97;;;13.96;100.00
29385;BME280;16367;48.736;9.218;2023-05-08T03:48:08;4106.63;;;13.93;100.00
29385;BME280;16367;48.736;9.218;2023-05-08T03:50:12;4393.28;;;14.02;100.00
29385;BME280;16367;48.736;9.218;2023-05-08T03:52:15;2455.63;;;13.93;100.00
29385;BME280;16367;48.736;9.218;2023-05-08T03:54:17;1253.56;;;13.94;100.00
29385;BME280;16367;48.736;9.218;2023-05-08T03:56:20;1421.56;;;13.93;100.00
29385;BME280;16367;48.736;9.218;2023-05-08T03:58:30;1143.91;;;13.92;100.00
29385;BME280;16367;48.736;9.218;2023-05-08T04:00:44;-1088.88;;;13.87;100.00
29385;BME280;16367;48.736;9.218;2023-05-08T04:02:56;-1994.78;;;13.84;100.00
29385;BME280;16367;48.736;9.218;2023-05-08T04:05:12;-2419.72;;;13.80;100.00
29385;BME280;16367;48.736;9.218;2023-05-08T04:07:25;-1654.16;;;13.77;100.00
29385;BME280;16367;48.736;9.218;2023-05-08T04:09:34;-2351.06;;;13.79;100.00
29385;BME280;16367;48.736;9.218;2023-05-08T04:11:43;-1211.31;;;13.81;100.00
29385;BME280;16367;48.736;9.218;2023-05-08T04:13:53;-733.03;;;13.79;100.00
29385;BME280;16367;48.736;9.218;2023-05-08T04:16:10;223.91;;;13.80;100.00
29385;BME280;16367;48.736;9.218;2023-05-08T04:18:16;1045.25;;;13.70;100.00
29385;BME280;16367;48.736;9.218;2023-05-08T04:20:21;1684.88;;;13.77;100.00
29385;BME280;16367;48.736;9.218;2023-05-08T04:22:26;1847.56;;;13.74;100.00
29385;BME280;16367;48.736;9.218;2023-05-08T04:24:34;2476.50;;;13.74;100.00
29385;BME280;16367;48.736;9.218;2023-05-08T04:26:39;3311.03;;;13.67;100.00
29385;BME280;16367;48.736;9.218;2023-05-08T04:28:42;3751.31;;;13.65;100.00
29385;BME280;16367;48.736;9.218;2023-05-08T04:30:47;3778.06;;;13.75;100.00
29385;BME280;16367;48.736;9.218;2023-05-08T04:32:52;3106.97;;;13.86;100.00
29385;BME280;16367;48.736;9.218;2023-05-08T04:34:57;-564.84;;;13.83;100.00
29385;BME280;16367;48.736;9.218;2023-05-08T04:37:00;-1531.81;;;13.82;100.00
29385;BME280;16367;48.736;9.218;2023-05-08T04:39:04;-4654.84;;;13.85;100.00
29385;BME280;16367;48.736;9.218;2023-05-08T04:41:07;-8178.75;;;13.76;100.00
29385;BME280;16367;48.736;9.218;2023-05-08T04:43:10;-9151.44;;;13.78;100.00
29385;BME280;16367;48.736;9.218;2023-05-08T04:45:13;-9765.81;;;13.78;100.00
29385;BME280;16367;48.736;9.218;2023-05-08T04:47:16;-11566.47;;;13.88;100.00
29385;BME280;16367;48.736;9.218;2023-05-08T04:49:20;-14394.13;;;13.98;100.00
29385;BME280;16367;48.736;9.218;2023-05-08T04:51:24;-17040.41;;;13.94;100.00
29385;BME280;16367;48.736;9.218;2023-05-08T04:53:31;-19746.44;;;13.85;100.00
29385;BME280;16367;48.736;9.218;2023-05-08T04:55:34;-20785.88;;;13.90;100.00
29385;BME280;16367;48.736;9.218;2023-05-08T04:57:36;-21353.38;;;13.92;100.00
29385;BME280;16367;48.736;9.218;2023-05-08T04:59:39;-21817.66;;;14.04;100.00
29385;BME280;16367;48.736;9.218;2023-05-08T05:01:42;-21905.47;;;13.93;100.00
29385;BME280;16367;48.736;9.218;2023-05-08T05:03:46;-22164.09;;;13.94;100.00
29385;BME280;16367;48.736;9.218;2023-05-08T05:05:57;-21357.19;;;13.87;100.00
29385;BME280;16367;48.736;9.218;2023-05-08T05:08:00;-20020.19;;;13.86;100.00
29385;BME280;16367;48.736;9.218;2023-05-08T05:10:05;-19414.66;;;13.95;100.00
29385;BME280;16367;48.736;9.218;2023-05-08T05:12:07;-19044.47;;;13.94;100.00
29385;BME280;16367;48.736;9.218;2023-05-08T05:14:10;-19226.13;;;13.91;100.00
29385;BME280;16367;48.736;9.218;2023-05-08T05:16:13;-20116.25;;;14.05;100.00
29385;BME280;16367;48.736;9.218;2023-05-08T05:18:16;-20847.69;;;14.13;100.00
29385;BME280;16367;48.736;9.218;2023-05-08T05:20:19;-22130.16;;;14.17;100.00
29385;BME280;16367;48.736;9.218;2023-05-08T05:22:23;-23450.22;;;14.12;100.00
29385;BME280;16367;48.736;9.218;2023-05-08T05:24:26;-23616.91;;;14.21;100.00
29385;BME280;16367;48.736;9.218;2023-05-08T05:26:29;-23617.69;;;14.24;100.00
29385;BME280;16367;48.736;9.218;2023-05-08T05:28:31;-23617.88;;;14.25;100.00
29385;BME280;16367;48.736;9.218;2023-05-08T05:30:34;-23617.06;;;14.22;100.00
29385;BME280;16367;48.736;9.218;2023-05-08T05:32:37;-23619.44;;;14.30;100.00
29385;BME280;16367;48.736;9.218;2023-05-08T05:34:40;-23619.28;;;14.29;100.00
29385;BME280;16367;48.736;9.218;2023-05-08T05:36:43;-23619.44;;;14.30;100.00
29385;BME280;16367;48.736;9.218;2023-05-08T05:38:47;-23618.50;;;14.27;100.00
29385;BME280;16367;48.736;9.218;2023-05-08T05:40:50;-23617.38;;;14.23;100.00
29385;BME280;16367;48.736;9.218;2023-05-08T05:42:53;-23615.81;;;14.18;100.00
29385;BME280;16367;48.736;9.218;2023-05-08T05:44:55;-23617.53;;;14.23;100.00
29385;BME280;16367;48.736;9.218;2023-05-08T05:46:59;-23615.97;;;14.18;100.00
29385;BME280;16367;48.736;9.218;2023-05-08T05:49:02;-23617.53;;;14.23;100.00
29385;BME280;16367;48.736;9.218;2023-05-08T05:51:05;-23614.38;;;14.13;100.00
29385;BME280;16367;48.736;9.218;2023-05-08T05:53:07;-23619.75;;;14.31;100.00
29385;BME280;16367;48.736;9.218;2023-05-08T05:55:12;-23614.56;;;14.14;100.00
29385;BME280;16367;48.736;9.218;2023-05-08T05:57:15;-23616.28;;;14.19;100.00
29385;BME280;16367;48.736;9.218;2023-05-08T05:59:18;-23619.44;;;14.30;100.00
29385;BME280;16367;48.736;9.218;2023-05-08T06:01:21;-23618.03;;;14.25;100.00
29385;BME280;16367;48.736;9.218;2023-05-08T06:03:25;-23618.50;;;14.27;100.00
29385;BME280;16367;48.736;9.218;2023-05-08T06:05:27;-23614.72;;;14.14;100.00
29385;BME280;16367;48.736;9.218;2023-05-08T06:07:30;-23611.53;;;14.04;100.00
29385;BME280;16367;48.736;9.218;2023-05-08T06:09:33;-23615.81;;;14.18;100.00
29385;BME280;16367;48.736;9.218;2023-05-08T06:11:38;-23614.38;;;14.13;100.00
29385;BME280;16367;48.736;9.218;2023-05-08T06:13:41;-23614.38;;;14.13;100.00
29385;BME280;16367;48.736;9.218;2023-05-08T06:15:44;-23617.22;;;14.23;100.00
29385;BME280;16367;48.736;9.218;2023-05-08T06:17:47;-23618.50;;;14.27;100.00
29385;BME280;16367;48.736;9.218;2023-05-08T06:19:52;-23619.28;;;14.29;100.00
29385;BME280;16367;48.736;9.218;2023-05-08T06:21:56;-23621.03;;;14.35;100.00
29385;BME280;16367;48.736;9.218;2023-05-08T06:23:59;-23613.28;;;14.10;100.00
29385;BME280;16367;48.736;9.218;2023-05-08T06:26:02;-23614.56;;;14.14;100.00
29385;BME280;16367;48.736;9.218;2023-05-08T06:28:06;-23612.97;;;14.09;100.00
29385;BME280;16367;48.736;9.218;2023-05-08T06:30:10;-23613.44;;;14.10;100.00
29385;BME280;16367;48.736;9.218;2023-05-08T06:32:13;-23613.75;;;14.11;100.00
29385;BME280;16367;48.736;9.218;2023-05-08T06:34:16;-23612.97;;;14.09;100.00
29385;BME280;16367;48.736;9.218;2023-05-08T06:36:19;-23613.44;;;14.10;100.00
29385;BME280;16367;48.736;9.218;2023-05-08T06:38:21;-23615.97;;;14.18;100.00
29385;BME280;16367;48.736;9.218;2023-05-08T06:40:24;-23614.38;;;14.13;100.00
29385;BME280;16367;48.736;9.218;2023-05-08T06:42:27;-23612.03;;;14.06;100.00
29385;BME280;16367;48.736;9.218;2023-05-08T06:44:31;-23615.81;;;14.18;100.00
29385;BME280;16367;48.736;9.218;2023-05-08T06:46:34;-23619.91;;;14.31;100.00
29385;BME280;16367;48.736;9.218;2023-05-08T06:48:37;-23628.28;;;14.58;100.00
29385;BME280;16367;48.736;9.218;2023-05-08T06:50:40;-23624.66;;;14.46;100.00
29385;BME280;16367;48.736;9.218;2023-05-08T06:52:43;-23621.03;;;14.35;100.00
29385;BME280;16367;48.736;9.218;2023-05-08T06:54:46;-23617.22;;;14.23;100.00
29385;BME280;16367;48.736;9.218;2023-05-08T06:56:49;-23618.34;;;14.26;100.00
29385;BME280;16367;48.736;9.218;2023-05-08T06:58:53;-23616.59;;;14.20;100.00
29385;BME280;16367;48.736;9.218;2023-05-08T07:01:09;-23619.44;;;14.30;100.00
29385;BME280;16367;48.736;9.218;2023-05-08T07:03:12;-23626.25;;;14.51;100.00
29385;BME280;16367;48.736;9.218;2023-05-08T07:05:16;-23625.13;;;14.48;100.00
29385;BME280;16367;48.736;9.218;2023-05-08T07:07:20;-23630.81;;;14.66;100.00
29385;BME280;16367;48.736;9.218;2023-05-08T07:09:23;-23628.75;;;14.59;100.00
29385;BME280;16367;48.736;9.218;2023-05-08T07:11:26;-23633.34;;;14.74;100.00
29385;BME280;16367;48.736;9.218;2023-05-08T07:13:29;-23630.19;;;14.64;100.00
29385;BME280;16367;48.736;9.218;2023-05-08T07:15:32;-23626.72;;;14.53;100.00
29385;BME280;16367;48.736;9.218;2023-05-08T07:17:36;-23627.34;;;14.55;100.00
29385;BME280;16367;48.736;9.218;2023-05-08T07:19:39;-23626.25;;;14.51;100.00
29385;BME280;16367;48.736;9.218;2023-05-08T07:21:42;-23623.88;;;14.44;100.00
29385;BME280;16367;48.736;9.218;2023-05-08T07:23:46;-23634.91;;;14.79;100.00
29385;BME280;16367;48.736;9.218;2023-05-08T07:25:52;-23628.91;;;14.60;100.00
29385;BME280;16367;48.736;9.218;2023-05-08T07:27:54;-23627.66;;;14.56;100.00
29385;BME280;16367;48.736;9.218;2023-05-08T07:30:00;-23633.34;;;14.74;100.00
29385;BME280;16367;48.736;9.218;2023-05-08T07:32:06;-23635.69;;;14.81;100.00
29385;BME280;16367;48.736;9.218;2023-05-08T07:34:10;-23634.91;;;14.79;100.00
29385;BME280;16367;48.736;9.218;2023-05-08T07:36:13;-23633.50;;;14.74;100.00
29385;BME280;16367;48.736;9.218;2023-05-08T07:38:16;-23627.03;;;14.54;100.00
29385;BME280;16367;48.736;9.218;2023-05-08T07:40:18;-23626.88;;;14.53;100.00
29385;BME280;16367;48.736;9.218;2023-05-08T07:42:21;-23621.03;;;14.35;100.00
29385;BME280;16367;48.736;9.218;2023-05-08T07:44:24;-23616.91;;;14.21;100.00
29385;BME280;16367;48.736;9.218;2023-05-08T07:46:27;-23611.53;;;14.04;100.00
29385;BME280;16367;48.736;9.218;2023-05-08T07:48:30;-23612.97;;;14.09;100.00
29385;BME280;16367;48.736;9.218;2023-05-08T07:50:34;-23612.19;;;14.06;100.00
29385;BME280;16367;48.736;9.218;2023-05-08T07:52:37;-23613.13;;;14.09;100.00
29385;BME280;16367;48.736;9.218;2023-05-08T07:54:40;-23616.44;;;14.20;100.00
29385;BME280;16367;48.736;9.218;2023-05-08T07:56:44;-23614.22;;;14.13;100.00
29385;BME280;16367;48.736;9.218;2023-05-08T07:58:47;-23612.19;;;14.06;100.00
29385;BME280;16367;48.736;9.218;2023-05-08T08:00:50;-23612.50;;;14.07;100.00
29385;BME280;16367;48.736;9.218;2023-05-08T08:02:53;-23618.50;;;14.27;100.00
29385;BME280;16367;48.736;9.218;2023-05-08T08:04:55;-23623.56;;;14.43;100.00
29385;BME280;16367;48.736;9.218;2023-05-08T08:07:00;-23620.25;;;14.32;100.00
29385;BME280;16367;48.736;9.218;2023-05-08T08:09:02;-23625.13;;;14.48;100.00
29385;BME280;16367;48.736;9.218;2023-05-08T08:11:05;-23621.66;;;14.37;100.00
29385;BME280;16367;48.736;9.218;2023-05-08T08:13:08;-23622.28;;;14.39;100.00
29385;BME280;16367;48.736;9.218;2023-05-08T08:15:11;-23622.59;;;14.40;100.00
29385;BME280;16367;48.736;9.218;2023-05-08T08:17:14;-23633.03;;;14.73;100.00
29385;BME280;16367;48.736;9.218;2023-05-08T08:19:17;-23626.41;;;14.52;100.00
29385;BME280;16367;48.736;9.218;2023-05-08T08:21:20;-23629.88;;;14.63;100.00
29385;BME280;16367;48.736;9.218;2023-05-08T08:23:24;-23638.69;;;14.91;100.00
29385;BME280;16367;48.736;9.218;2023-05-08T08:25:27;-23638.38;;;14.90;100.00
29385;BME280;16367;48.736;9.218;2023-05-08T08:27:29;-23645.78;;;15.14;100.00
29385;BME280;16367;48.736;9.218;2023-05-08T08:29:32;-23637.13;;;14.86;100.00
29385;BME280;16367;48.736;9.218;2023-05-08T08:31:35;-23640.91;;;14.98;100.00
29385;BME280;16367;48.736;9.218;2023-05-08T08:33:38;-23636.19;;;14.83;100.00
29385;BME280;16367;48.736;9.218;2023-05-08T08:35:41;-23636.97;;;14.85;100.00
29385;BME280;16367;48.736;9.218;2023-05-08T08:37:44;-23643.13;;;15.05;100.00
29385;BME280;16367;48.736;9.218;2023-05-08T08:39:48;-23640.91;;;14.98;100.00
29385;BME280;16367;48.736;9.218;2023-05-08T08:41:51;-23633.03;;;14.73;100.00
29385;BME280;16367;48.736;9.218;2023-05-08T08:43:54;-23635.53;;;14.81;100.00
29385;BME280;16367;48.736;9.218;2023-05-08T08:45:56;-23638.06;;;14.89;100.00
29385;BME280;16367;48.736;9.218;2023-05-08T08:48:01;-23635.88;;;14.82;100.00
29385;BME280;16367;48.736;9.218;2023-05-08T08:50:07;-23636.19;;;14.83;100.00
29385;BME280;16367;48.736;9.218;2023-05-08T08:52:20;-23629.56;;;14.62;100.00
29385;BME280;16367;48.736;9.218;2023-05-08T08:54:27;-23632.88;;;14.72;100.00
29385;BME280;16367;48.736;9.218;2023-05-08T08:56:31;-23635.69;;;14.81;100.00
29385;BME280;16367;48.736;9.218;2023-05-08T08:58:37;-23633.50;;;14.74;100.00
29385;BME280;16367;48.736;9.218;2023-05-08T09:00:43;-23638.38;;;14.90;100.00
29385;BME280;16367;48.736;9.218;2023-05-08T09:02:48;-23633.97;;;14.76;100.00
29385;BME280;16367;48.736;9.218;2023-05-08T09:04:51;-23630.34;;;14.64;100.00
29385;BME280;16367;48.736;9.218;2023-05-08T09:06:54;-23643.75;;;15.07;100.00
29385;BME280;16367;48.736;9.218;2023-05-08T09:08:58;-23641.53;;;15.00;100.00
29385;BME280;16367;48.736;9.218;2023-05-08T09:11:02;-23649.13;;;15.24;100.00
29385;BME280;16367;48.736;9.218;2023-05-08T09:13:07;-23645.16;;;15.12;100.00
29385;BME280;16367;48.736;9.218;2023-05-08T09:15:09;-23647.69;;;15.20;100.00
29385;BME280;16367;48.736;9.218;2023-05-08T09:17:13;-23653.84;;;15.39;100.00
29385;BME280;16367;48.736;9.218;2023-05-08T09:19:16;-23649.13;;;15.24;100.00
29385;BME280;16367;48.736;9.218;2023-05-08T09:21:20;-23655.41;;;15.44;100.00
29385;BME280;16367;48.736;9.218;2023-05-08T09:23:24;-23650.22;;;15.28;100.00
29385;BME280;16367;48.736;9.218;2023-05-08T09:25:40;-23653.84;;;15.39;100.00
29385;BME280;16367;48.736;9.218;2023-05-08T09:27:42;-23653.84;;;15.39;100.00
29385;BME280;16367;48.736;9.218;2023-05-08T09:29:57;-23644.06;;;15.08;100.00
29385;BME280;16367;48.736;9.218;2023-05-08T09:32:00;-23646.28;;;15.15;100.00
29385;BME280;16367;48.736;9.218;2023-05-08T09:34:03;-23646.28;;;15.15;100.00
29385;BME280;16367;48.736;9.218;2023-05-08T09:36:23;-23645.66;;;15.13;100.00
29385;BME280;16367;48.736;9.218;2023-05-08T09:38:34;-23651.94;;;15.33;100.00
29385;BME280;16367;48.736;9.218;2023-05-08T09:40:37;-23644.06;;;15.08;100.00
29385;BME280;16367;48.736;9.218;2023-05-08T09:42:40;-23647.84;;;15.20;100.00
29385;BME280;16367;48.736;9.218;2023-05-08T09:44:44;-23656.53;;;15.48;100.00
29385;BME280;16367;48.736;9.218;2023-05-08T09:46:49;-23659.38;;;15.57;100.00
29385;BME280;16367;48.736;9.218;2023-05-08T09:48:53;-23654.16;;;15.40;100.00
29385;BME280;16367;48.736;9.218;2023-05-08T09:51:04;-23645.66;;;15.13;100.00
29385;BME280;16367;48.736;9.218;2023-05-08T09:53:07;-23653.53;;;15.38;100.00
29385;BME280;16367;48.736;9.218;2023-05-08T09:55:10;-23655.41;;;15.44;100.00
29385;BME280;16367;48.736;9.218;2023-05-08T09:57:13;-23659.53;;;15.57;100.00
29385;BME280;16367;48.736;9.218;2023-05-08T09:59:24;-23662.03;;;15.65;100.00
29385;BME280;16367;48.736;9.218;2023-05-08T10:01:29;-23661.41;;;15.63;100.00
29385;BME280;16367;48.736;9.218;2023-05-08T10:03:46;-23674.03;;;16.04;100.00
29385;BME280;16367;48.736;9.218;2023-05-08T10:05:50;-23673.56;;;16.02;100.00
29385;BME280;16367;48.736;9.218;2023-05-08T10:07:52;-23664.56;;;15.74;100.00
29385;BME280;16367;48.736;9.218;2023-05-08T10:10:00;-23664.88;;;15.75;100.00
29385;BME280;16367;48.736;9.218;2023-05-08T10:12:04;-23656.53;;;15.48;100.00
29385;BME280;16367;48.736;9.218;2023-05-08T10:14:07;-23651.63;;;15.32;100.00
29385;BME280;16367;48.736;9.218;2023-05-08T10:16:13;-23668.34;;;15.86;100.00
29385;BME280;16367;48.736;9.218;2023-05-08T10:18:16;-23665.19;;;15.76;100.00
29385;BME280;16367;48.736;9.218;2023-05-08T10:20:24;-23682.06;;;16.29;100.00
29385;BME280;16367;48.736;9.218;2023-05-08T10:22:31;-23670.88;;;15.94;100.00
29385;BME280;16367;48.736;9.218;2023-05-08T10:24:40;-23676.22;;;16.11;100.00
29385;BME280;16367;48.736;9.218;2023-05-08T10:26:49;-23666.00;;;15.78;100.00
29385;BME280;16367;48.736;9.218;2023-05-08T10:29:12;-23651.94;;;15.33;100.00
29385;BME280;16367;48.736;9.218;2023-05-08T10:31:20;-23659.22;;;15.56;100.00
29385;BME280;16367;48.736;9.218;2023-05-08T10:33:27;-23656.84;;;15.49;100.00
29385;BME280;16367;48.736;9.218;2023-05-08T10:35:33;-23660.47;;;15.60;100.00
29385;BME280;16367;48.736;9.218;2023-05-08T10:37:38;-23675.13;;;16.07;100.00
29385;BME280;16367;48.736;9.218;2023-05-08T10:39:43;-23666.94;;;15.81;100.00
29385;BME280;16367;48.736;9.218;2023-05-08T10:41:47;-23669.28;;;15.89;100.00
29385;BME280;16367;48.736;9.218;2023-05-08T10:43:50;-23663.00;;;15.68;100.00
29385;BME280;16367;48.736;9.218;2023-05-08T10:45:55;-23666.16;;;15.79;100.00
29385;BME280;16367;48.736;9.218;2023-05-08T10:48:06;-23660.63;;;15.61;100.00
29385;BME280;16367;48.736;9.218;2023-05-08T10:50:18;-23668.66;;;15.87;100.00
29385;BME280;16367;48.736;9.218;2023-05-08T10:52:30;-23681.44;;;16.27;100.00